createdAt,value
2017-08-09T00:01:28.670Z,100700.67
2017-08-09T00:04:03.512Z,100699.97
2017-08-09T00:06:38.436Z,100695.14
2017-08-09T00:09:13.405Z,100691.88
2017-08-09T00:11:49.135Z,100701.58
2017-08-09T00:14:24.584Z,100701.59
2017-08-09T00:16:59.287Z,100705.84
2017-08-09T00:19:35.133Z,100702.85
2017-08-09T00:22:09.788Z,100711.57
2017-08-09T00:24:44.518Z,100706.84
2017-08-09T00:27:19.232Z,100706.51
2017-08-09T00:29:53.953Z,100706.06
2017-08-09T00:32:28.781Z,100716.48
2017-08-09T00:35:03.544Z,100716.18
2017-08-09T00:37:38.336Z,100718.09
2017-08-09T00:40:13.099Z,100711.47
2017-08-09T00:42:48.145Z,100714.54
2017-08-09T00:45:22.675Z,100722.48
2017-08-09T00:47:57.415Z,100732.28
2017-08-09T00:50:33.124Z,100726.81
2017-08-09T00:53:07.865Z,100723.97
2017-08-09T00:55:42.625Z,100725.27
2017-08-09T00:58:17.331Z,100719.20
2017-08-09T01:00:51.902Z,100718.69
2017-08-09T01:03:26.681Z,100703.50
2017-08-09T01:06:01.379Z,100699.67
2017-08-09T01:08:36.095Z,100701.13
2017-08-09T01:11:11.740Z,100703.20
2017-08-09T01:13:46.404Z,100702.09
2017-08-09T01:16:21.460Z,100715.67
2017-08-09T01:18:56.749Z,100720.02
2017-08-09T01:21:30.938Z,100720.22
2017-08-09T01:24:05.943Z,100717.75
2017-08-09T01:26:40.648Z,100715.32
2017-08-09T01:29:15.361Z,100720.02
2017-08-09T01:31:50.024Z,100731.97
2017-08-09T01:34:24.813Z,100730.05
2017-08-09T01:37:00.459Z,100723.98
2017-08-09T01:39:35.116Z,100727.05
2017-08-09T01:42:09.863Z,100721.70
2017-08-09T01:44:44.453Z,100726.44
2017-08-09T01:47:19.149Z,100730.97
2017-08-09T01:49:53.417Z,100733.28
2017-08-09T01:52:27.989Z,100735.28
2017-08-09T01:55:02.550Z,100738.00
2017-08-09T01:57:37.528Z,100743.51
2017-08-09T02:00:11.940Z,100741.63
2017-08-09T02:02:46.460Z,100745.14
2017-08-09T02:05:21.008Z,100751.78
2017-08-09T02:07:55.944Z,100748.55
2017-08-09T02:10:30.598Z,100745.98
2017-08-09T02:13:05.318Z,100744.95
2017-08-09T02:15:40.978Z,100745.51
2017-08-09T02:18:16.623Z,100745.87
2017-08-09T02:20:51.359Z,100750.91
2017-08-09T02:23:25.982Z,100749.23
2017-08-09T02:26:00.721Z,100743.64
2017-08-09T02:28:35.360Z,100747.80
2017-08-09T02:31:09.990Z,100749.00
2017-08-09T02:33:45.677Z,100750.91
2017-08-09T02:36:20.282Z,100754.49
2017-08-09T02:38:54.988Z,100752.91
2017-08-09T02:41:29.696Z,100759.33
2017-08-09T02:44:05.396Z,100756.77
2017-08-09T02:46:40.052Z,100753.70
2017-08-09T02:49:14.730Z,100749.83
2017-08-09T02:51:49.231Z,100752.73
2017-08-09T02:54:24.858Z,100747.98
2017-08-09T02:56:59.511Z,100745.37
2017-08-09T02:59:34.151Z,100747.29
2017-08-09T03:02:09.901Z,100753.06
2017-08-09T03:04:44.533Z,100751.19
2017-08-09T03:07:19.247Z,100755.58
2017-08-09T03:09:54.062Z,100766.81
2017-08-09T03:12:29.611Z,100763.89
2017-08-09T03:15:04.295Z,100777.11
2017-08-09T03:17:39.905Z,100769.83
2017-08-09T03:20:15.106Z,100774.72
2017-08-09T03:22:50.247Z,100768.73
2017-08-09T03:25:24.862Z,100761.20
2017-08-09T03:27:59.532Z,100767.46
2017-08-09T03:30:34.125Z,100762.62
2017-08-09T03:33:08.691Z,100761.84
2017-08-09T03:35:43.423Z,100768.05
2017-08-09T03:38:18.134Z,100761.86
2017-08-09T03:40:52.916Z,100762.34
2017-08-09T03:43:27.565Z,100762.06
2017-08-09T03:46:02.204Z,100767.58
2017-08-09T03:48:36.951Z,100760.14
2017-08-09T03:51:11.715Z,100776.93
2017-08-09T03:53:47.435Z,100774.92
2017-08-09T03:56:22.175Z,100782.95
2017-08-09T03:58:56.991Z,100785.87
2017-08-09T04:01:32.499Z,100783.11
2017-08-09T04:04:07.094Z,100786.91
2017-08-09T04:06:41.865Z,100788.31
2017-08-09T04:09:16.536Z,100791.08
2017-08-09T04:11:51.152Z,100789.56
2017-08-09T04:14:25.859Z,100789.53
2017-08-09T04:17:00.620Z,100794.70
2017-08-09T04:19:35.515Z,100793.91
2017-08-09T04:22:10.262Z,100791.75
2017-08-09T04:24:44.799Z,100795.06
2017-08-09T04:27:19.466Z,100794.95
2017-08-09T04:29:54.189Z,100807.91
2017-08-09T04:32:29.990Z,100799.06
2017-08-09T04:35:04.739Z,100794.70
2017-08-09T04:37:39.368Z,100800.64
2017-08-09T04:40:13.971Z,100806.89
2017-08-09T04:42:48.625Z,100806.89
2017-08-09T04:45:24.246Z,100803.84
2017-08-09T04:47:58.986Z,100810.83
2017-08-09T04:50:33.567Z,100811.62
2017-08-09T04:53:09.195Z,100810.22
2017-08-09T04:55:43.887Z,100812.02
2017-08-09T04:58:18.523Z,100819.70
2017-08-09T05:00:53.247Z,100820.74
2017-08-09T05:03:27.992Z,100820.81
2017-08-09T05:06:02.711Z,100826.88
2017-08-09T05:08:37.343Z,100827.56
2017-08-09T05:11:11.968Z,100822.12
2017-08-09T05:13:46.698Z,100829.20
2017-08-09T05:16:21.219Z,100824.91
2017-08-09T05:18:55.956Z,100830.17
2017-08-09T05:21:31.584Z,100830.48
2017-08-09T05:24:07.007Z,100833.39
2017-08-09T05:26:41.855Z,100839.19
2017-08-09T05:29:16.580Z,100835.95
2017-08-09T05:31:51.950Z,100834.11
2017-08-09T05:34:27.087Z,100838.41
2017-08-09T05:37:01.787Z,100840.84
2017-08-09T05:39:36.394Z,100845.20
2017-08-09T05:42:11.027Z,100846.70
2017-08-09T05:44:45.739Z,100841.97
2017-08-09T05:47:20.387Z,100846.36
2017-08-09T05:49:55.235Z,100842.00
2017-08-09T05:52:30.072Z,100841.91
2017-08-09T05:55:04.913Z,100843.20
2017-08-09T05:57:40.653Z,100843.61
2017-08-09T06:00:16.018Z,100838.42
2017-08-09T06:02:50.762Z,100836.68
2017-08-09T06:05:25.451Z,100843.41
2017-08-09T06:08:00.395Z,100847.07
2017-08-09T06:10:35.067Z,100840.14
2017-08-09T06:13:09.595Z,100839.74
2017-08-09T06:15:44.278Z,100849.72
2017-08-09T06:18:19.003Z,100844.27
2017-08-09T06:20:53.679Z,100855.12
2017-08-09T06:23:28.137Z,100852.58
2017-08-09T06:26:02.907Z,100853.06
2017-08-09T06:28:37.742Z,100863.05
2017-08-09T06:31:12.344Z,100872.80
2017-08-09T06:33:47.904Z,100875.04
2017-08-09T06:36:22.542Z,100871.97
2017-08-09T06:38:57.175Z,100876.09
2017-08-09T06:41:31.773Z,100885.87
2017-08-09T06:44:07.606Z,100887.02
2017-08-09T06:46:42.267Z,100891.94
2017-08-09T06:49:17.928Z,100891.94
2017-08-09T06:51:52.544Z,100892.45
2017-08-09T06:54:27.347Z,100900.70
2017-08-09T06:57:02.236Z,100904.13
2017-08-09T06:59:37.166Z,100918.41
2017-08-09T07:02:11.584Z,100916.42
2017-08-09T07:04:46.235Z,100929.70
2017-08-09T07:07:20.988Z,100932.14
2017-08-09T07:09:55.715Z,100925.32
2017-08-09T07:12:29.991Z,100927.56
2017-08-09T07:15:05.907Z,100932.01
2017-08-09T07:17:40.548Z,100935.31
2017-08-09T07:20:15.234Z,100938.13
2017-08-09T07:22:49.984Z,100939.93
2017-08-09T07:25:24.643Z,100949.42
2017-08-09T07:27:59.363Z,100947.05
2017-08-09T07:30:34.094Z,100950.38
2017-08-09T07:33:08.819Z,100942.69
2017-08-09T07:35:43.685Z,100953.77
2017-08-09T07:38:18.551Z,100951.75
2017-08-09T07:40:53.412Z,100954.61
2017-08-09T07:43:28.108Z,100957.73
2017-08-09T07:46:02.938Z,100961.61
2017-08-09T07:48:37.726Z,100969.35
2017-08-09T07:51:12.480Z,100975.82
2017-08-09T07:53:47.144Z,100975.86
2017-08-09T07:56:21.879Z,100976.83
2017-08-09T07:58:56.622Z,100981.72
2017-08-09T08:01:32.235Z,100991.17
2017-08-09T08:04:06.815Z,100995.80
2017-08-09T08:06:42.414Z,100995.88
2017-08-09T08:09:18.155Z,100996.54
2017-08-09T08:11:52.755Z,101001.11
2017-08-09T08:14:27.547Z,101009.59
2017-08-09T08:17:03.183Z,101009.54
2017-08-09T08:19:38.950Z,101020.42
2017-08-09T08:22:13.762Z,101026.34
2017-08-09T08:24:48.408Z,101037.36
2017-08-09T08:27:23.018Z,101037.53
2017-08-09T08:29:57.843Z,101040.53
2017-08-09T08:32:32.459Z,101049.52
2017-08-09T08:35:07.256Z,101043.36
2017-08-09T08:37:41.892Z,101049.20
2017-08-09T08:40:17.150Z,101041.45
2017-08-09T08:42:52.314Z,101039.17
2017-08-09T08:45:26.694Z,101046.33
2017-08-09T08:48:01.552Z,101044.88
2017-08-09T08:50:36.279Z,101043.20
2017-08-09T08:53:10.936Z,101054.50
2017-08-09T08:55:45.757Z,101052.52
2017-08-09T08:58:20.302Z,101048.58
2017-08-09T09:00:54.916Z,101045.20
2017-08-09T09:03:29.804Z,101040.25
2017-08-09T09:06:04.599Z,101047.46
2017-08-09T09:08:39.308Z,101044.59
2017-08-09T09:11:15.089Z,101046.14
2017-08-09T09:13:49.764Z,101041.13
2017-08-09T09:16:25.428Z,101048.27
2017-08-09T09:19:00.243Z,101051.30
2017-08-09T09:21:35.043Z,101056.81
2017-08-09T09:24:09.800Z,101058.55
2017-08-09T09:26:44.400Z,101055.38
2017-08-09T09:29:19.288Z,101057.19
2017-08-09T09:31:54.053Z,101054.68
2017-08-09T09:34:28.759Z,101069.95
2017-08-09T09:37:04.556Z,101052.52
2017-08-09T09:39:39.291Z,101056.45
2017-08-09T09:42:14.044Z,101047.41
2017-08-09T09:44:48.804Z,101054.66
2017-08-09T09:47:23.463Z,101056.16
2017-08-09T09:49:59.225Z,101059.97
2017-08-09T09:52:34.994Z,101061.42
2017-08-09T09:55:09.744Z,101056.81
2017-08-09T09:57:45.560Z,101052.64
2017-08-09T10:00:20.194Z,101053.48
2017-08-09T10:02:54.826Z,101056.16
2017-08-09T10:05:29.550Z,101058.64
2017-08-09T10:08:04.338Z,101069.06
2017-08-09T10:10:39.041Z,101068.52
2017-08-09T10:13:13.778Z,101063.42
2017-08-09T10:15:48.475Z,101072.38
2017-08-09T10:18:23.314Z,101088.02
2017-08-09T10:20:58.005Z,101083.75
2017-08-09T10:23:33.714Z,101088.20
2017-08-09T10:26:08.514Z,101091.47
2017-08-09T10:28:43.277Z,101097.20
2017-08-09T10:31:18.011Z,101097.84
2017-08-09T10:33:53.822Z,101100.77
2017-08-09T10:36:28.435Z,101098.72
2017-08-09T10:39:02.984Z,101109.58
2017-08-09T10:41:37.899Z,101112.97
2017-08-09T10:44:12.660Z,101116.16
2017-08-09T10:46:47.373Z,101120.78
2017-08-09T10:49:22.090Z,101116.23
2017-08-09T10:51:57.636Z,101113.42
2017-08-09T10:54:32.198Z,101108.52
2017-08-09T10:57:06.782Z,101113.91
2017-08-09T10:59:41.587Z,101111.33
2017-08-09T11:02:16.348Z,101115.49
2017-08-09T11:04:51.044Z,101104.31
2017-08-09T11:07:25.703Z,101105.35
2017-08-09T11:10:01.347Z,101107.36
2017-08-09T11:12:36.077Z,101100.80
2017-08-09T11:15:10.820Z,101101.47
2017-08-09T11:17:45.448Z,101110.77
2017-08-09T11:20:22.202Z,101109.21
2017-08-09T11:22:56.928Z,101114.87
2017-08-09T11:25:31.595Z,101119.89
2017-08-09T11:28:06.231Z,101114.97
2017-08-09T11:30:40.774Z,101116.87
2017-08-09T11:33:15.389Z,101117.50
2017-08-09T11:35:50.064Z,101115.70
2017-08-09T11:38:24.779Z,101114.56
2017-08-09T11:41:00.442Z,101120.22
2017-08-09T11:43:35.330Z,101121.17
2017-08-09T11:46:09.971Z,101112.58
2017-08-09T11:48:44.736Z,101109.80
2017-08-09T11:51:19.502Z,101119.66
2017-08-09T11:53:54.290Z,101120.09
2017-08-09T11:56:29.943Z,101127.16
2017-08-09T11:59:04.592Z,101126.55
2017-08-09T12:01:39.079Z,101141.46
2017-08-09T12:04:15.987Z,101143.55
2017-08-09T12:06:50.702Z,101134.44
2017-08-09T12:09:25.379Z,101140.30
2017-08-09T12:12:00.087Z,101143.41
2017-08-09T12:14:34.811Z,101136.93
2017-08-09T12:17:09.787Z,101134.00
2017-08-09T12:19:45.195Z,101139.35
2017-08-09T12:22:19.919Z,101125.56
2017-08-09T12:24:54.852Z,101128.80
2017-08-09T12:27:29.575Z,101118.54
2017-08-09T12:30:04.227Z,101122.58
2017-08-09T12:32:38.916Z,101116.44
2017-08-09T12:35:14.679Z,101118.88
2017-08-09T12:37:49.400Z,101127.25
2017-08-09T12:40:23.810Z,101124.95
2017-08-09T12:42:58.523Z,101118.98
2017-08-09T12:45:33.164Z,101129.63
2017-08-09T12:48:08.535Z,101129.87
2017-08-09T12:50:44.566Z,101132.61
2017-08-09T12:53:19.158Z,101134.41
2017-08-09T12:55:53.883Z,101138.61
2017-08-09T12:58:29.400Z,101135.84
2017-08-09T13:01:05.020Z,101131.10
2017-08-09T13:03:40.609Z,101130.16
2017-08-09T13:06:16.227Z,101127.11
2017-08-09T13:08:50.959Z,101123.55
2017-08-09T13:11:25.488Z,101128.52
2017-08-09T13:14:01.310Z,101135.20
2017-08-09T13:16:36.013Z,101138.03
2017-08-09T13:19:11.619Z,101140.88
2017-08-09T13:21:46.376Z,101131.97
2017-08-09T13:24:21.095Z,101134.84
2017-08-09T13:26:55.755Z,101130.39
2017-08-09T13:29:30.319Z,101135.60
2017-08-09T13:32:04.832Z,101128.98
2017-08-09T13:34:40.599Z,101137.43
2017-08-09T13:37:15.264Z,101130.44
2017-08-09T13:39:49.835Z,101139.99
2017-08-09T13:42:24.472Z,101148.05
2017-08-09T13:44:59.048Z,101145.88
2017-08-09T13:47:33.653Z,101149.59
2017-08-09T13:50:09.415Z,101149.83
2017-08-09T13:52:43.962Z,101151.28
2017-08-09T13:55:18.567Z,101149.16
2017-08-09T13:57:53.248Z,101145.81
2017-08-09T14:00:28.683Z,101151.25
2017-08-09T14:03:03.028Z,101148.02
2017-08-09T14:05:37.750Z,101149.25
2017-08-09T14:08:12.387Z,101158.95
2017-08-09T14:10:47.035Z,101160.58
2017-08-09T14:13:21.738Z,101160.95
2017-08-09T14:15:56.297Z,101165.56
2017-08-09T14:18:30.899Z,101165.75
2017-08-09T14:21:05.443Z,101171.36
2017-08-09T14:23:40.047Z,101172.08
2017-08-09T14:26:15.550Z,101181.02
2017-08-09T14:28:50.344Z,101179.75
2017-08-09T14:31:25.970Z,101181.39
2017-08-09T14:34:00.644Z,101181.22
2017-08-09T14:36:35.324Z,101175.55
2017-08-09T14:39:09.912Z,101177.93
2017-08-09T14:41:45.656Z,101177.98
2017-08-09T14:44:20.252Z,101180.70
2017-08-09T14:46:56.042Z,101180.95
2017-08-09T14:49:30.512Z,101179.05
2017-08-09T14:52:05.239Z,101181.20
2017-08-09T14:54:39.568Z,101187.85
2017-08-09T14:57:14.643Z,101189.89
2017-08-09T14:59:50.027Z,101188.47
2017-08-09T15:02:24.618Z,101185.23
2017-08-09T15:04:59.163Z,101193.03
2017-08-09T15:07:33.812Z,101186.88
2017-08-09T15:10:08.321Z,101200.43
2017-08-09T15:12:43.961Z,101205.23
2017-08-09T15:15:18.556Z,101192.98
2017-08-09T15:17:53.321Z,101196.84
2017-08-09T15:20:27.908Z,101195.56
2017-08-09T15:23:02.606Z,101204.44
2017-08-09T15:25:38.239Z,101216.73
2017-08-09T15:28:12.948Z,101209.81
2017-08-09T15:30:47.596Z,101217.34
2017-08-09T15:33:22.411Z,101212.31
2017-08-09T15:35:57.008Z,101212.95
2017-08-09T15:38:31.679Z,101212.28
2017-08-09T15:41:05.834Z,101206.81
2017-08-09T15:43:40.832Z,101209.06
2017-08-09T15:46:15.448Z,101205.63
2017-08-09T15:48:49.975Z,101211.03
2017-08-09T15:51:24.694Z,101215.60
2017-08-09T15:53:59.430Z,101214.59
2017-08-09T15:56:34.151Z,101220.37
2017-08-09T15:59:08.774Z,101215.94
2017-08-09T16:01:43.330Z,101215.69
2017-08-09T16:04:17.939Z,101208.75
2017-08-09T16:06:52.649Z,101204.67
2017-08-09T16:09:27.395Z,101210.63
2017-08-09T16:12:01.910Z,101210.73
2017-08-09T16:14:37.503Z,101210.80
2017-08-09T16:17:12.195Z,101207.34
2017-08-09T16:19:47.835Z,101202.07
2017-08-09T16:22:22.596Z,101200.27
2017-08-09T16:24:57.404Z,101202.59
2017-08-09T16:27:32.023Z,101195.38
2017-08-09T16:30:07.668Z,101205.23
2017-08-09T16:32:43.433Z,101204.77
2017-08-09T16:35:18.108Z,101201.34
2017-08-09T16:37:52.716Z,101204.88
2017-08-09T16:40:27.364Z,101198.28
2017-08-09T16:43:02.080Z,101203.93
2017-08-09T16:45:37.796Z,101201.88
2017-08-09T16:48:12.058Z,101208.12
2017-08-09T16:50:46.927Z,101208.92
2017-08-09T16:53:21.662Z,101213.05
2017-08-09T16:55:56.339Z,101217.60
2017-08-09T16:58:30.966Z,101217.06
2017-08-09T17:01:05.595Z,101219.67
2017-08-09T17:03:40.266Z,101214.94
2017-08-09T17:06:15.573Z,101224.31
2017-08-09T17:08:51.482Z,101223.23
2017-08-09T17:11:26.232Z,101225.09
2017-08-09T17:14:00.560Z,101227.81
2017-08-09T17:16:35.329Z,101230.34
2017-08-09T17:19:11.018Z,101232.27
2017-08-09T17:21:45.645Z,101230.47
2017-08-09T17:24:20.269Z,101231.36
2017-08-09T17:26:54.879Z,101229.63
2017-08-09T17:29:29.509Z,101230.44
2017-08-09T17:32:04.175Z,101232.22
2017-08-09T17:34:38.866Z,101224.55
2017-08-09T17:37:13.407Z,101228.16
2017-08-09T17:39:48.023Z,101231.69
2017-08-09T17:42:22.775Z,101235.27
2017-08-09T17:44:57.450Z,101243.93
2017-08-09T17:47:32.120Z,101246.28
2017-08-09T17:50:07.906Z,101246.08
2017-08-09T17:52:42.492Z,101248.78
2017-08-09T17:55:17.222Z,101247.69
2017-08-09T17:57:51.922Z,101250.32
2017-08-09T18:00:26.670Z,101253.06
2017-08-09T18:03:01.469Z,101263.58
2017-08-09T18:05:36.215Z,101267.05
2017-08-09T18:08:10.836Z,101263.69
2017-08-09T18:10:45.472Z,101268.41
2017-08-09T18:13:20.195Z,101267.37
2017-08-09T18:15:54.955Z,101263.48
2017-08-09T18:18:29.646Z,101265.03
2017-08-09T18:21:04.320Z,101257.56
2017-08-09T18:23:38.859Z,101264.61
2017-08-09T18:26:13.473Z,101259.33
2017-08-09T18:28:48.015Z,101261.25
2017-08-09T18:31:22.777Z,101261.84
2017-08-09T18:33:57.529Z,101260.22
2017-08-09T18:36:32.227Z,101262.48
2017-08-09T18:39:06.874Z,101265.05
2017-08-09T18:41:41.392Z,101273.04
2017-08-09T18:44:16.131Z,101284.04
2017-08-09T18:46:50.714Z,101277.37
2017-08-09T18:49:25.352Z,101287.23
2017-08-09T18:52:00.084Z,101288.71
2017-08-09T18:54:34.723Z,101299.52
2017-08-09T18:57:09.331Z,101301.27
2017-08-09T18:59:43.998Z,101304.41
2017-08-09T19:02:18.720Z,101314.09
2017-08-09T19:04:53.274Z,101311.98
2017-08-09T19:07:29.063Z,101311.58
2017-08-09T19:10:03.438Z,101313.60
2017-08-09T19:12:39.859Z,101313.28
2017-08-09T19:15:15.208Z,101312.41
2017-08-09T19:17:51.038Z,101320.59
2017-08-09T19:20:25.658Z,101322.94
2017-08-09T19:23:00.318Z,101326.95
2017-08-09T19:25:36.182Z,101318.86
2017-08-09T19:28:10.839Z,101320.64
2017-08-09T19:30:46.461Z,101322.78
2017-08-09T19:33:21.011Z,101321.31
2017-08-09T19:35:55.628Z,101327.38
2017-08-09T19:38:30.284Z,101327.81
2017-08-09T19:41:04.911Z,101332.94
2017-08-09T19:43:39.598Z,101324.80
2017-08-09T19:46:14.323Z,101327.27
2017-08-09T19:48:48.839Z,101321.09
2017-08-09T19:51:23.599Z,101320.56
2017-08-09T19:53:58.278Z,101322.00
2017-08-09T19:56:32.879Z,101328.98
2017-08-09T19:59:07.526Z,101330.95
2017-08-09T20:01:42.291Z,101333.16
2017-08-09T20:04:17.059Z,101329.05
2017-08-09T20:06:51.735Z,101337.48
2017-08-09T20:09:26.567Z,101343.10
2017-08-09T20:12:01.107Z,101345.63
2017-08-09T20:14:35.643Z,101338.70
2017-08-09T20:17:10.455Z,101350.08
2017-08-09T20:19:45.074Z,101350.17
2017-08-09T20:22:19.739Z,101346.33
2017-08-09T20:24:54.334Z,101355.01
2017-08-09T20:27:28.589Z,101351.97
2017-08-09T20:30:03.427Z,101349.84
2017-08-09T20:32:38.046Z,101350.85
2017-08-09T20:35:12.727Z,101355.09
2017-08-09T20:37:47.698Z,101367.56
2017-08-09T20:40:22.135Z,101360.32
2017-08-09T20:42:57.117Z,101359.91
2017-08-09T20:45:32.487Z,101367.84
2017-08-09T20:48:07.226Z,101368.98
2017-08-09T20:50:41.939Z,101371.42
2017-08-09T20:53:17.875Z,101365.27
2017-08-09T20:55:52.398Z,101365.67
2017-08-09T20:58:26.947Z,101360.73
2017-08-09T21:01:01.660Z,101360.47
2017-08-09T21:03:36.007Z,101357.63
2017-08-09T21:06:11.119Z,101348.59
2017-08-09T21:08:45.742Z,101341.04
2017-08-09T21:11:20.335Z,101339.11
2017-08-09T21:13:55.023Z,101340.13
2017-08-09T21:16:29.647Z,101334.18
2017-08-09T21:19:04.256Z,101336.64
2017-08-09T21:21:38.987Z,101334.42
2017-08-09T21:24:14.622Z,101339.05
2017-08-09T21:26:49.350Z,101340.75
2017-08-09T21:29:24.092Z,101343.20
2017-08-09T21:31:58.826Z,101354.04
2017-08-09T21:34:33.634Z,101354.41
2017-08-09T21:37:09.407Z,101360.71
2017-08-09T21:39:44.024Z,101362.08
2017-08-09T21:42:18.641Z,101361.31
2017-08-09T21:44:53.433Z,101368.00
2017-08-09T21:47:27.852Z,101373.86
2017-08-09T21:50:03.474Z,101377.83
2017-08-09T21:52:39.114Z,101382.60
2017-08-09T21:55:14.940Z,101369.22
2017-08-09T21:57:49.579Z,101366.70
2017-08-09T22:00:24.161Z,101364.90
2017-08-09T22:02:58.691Z,101362.25
2017-08-09T22:05:33.334Z,101361.62
2017-08-09T22:08:08.689Z,101365.66
2017-08-09T22:10:43.735Z,101363.97
2017-08-09T22:13:18.340Z,101361.52
2017-08-09T22:15:52.976Z,101358.52
2017-08-09T22:18:27.611Z,101355.44
2017-08-09T22:21:02.232Z,101362.27
2017-08-09T22:23:36.876Z,101363.75
2017-08-09T22:26:11.491Z,101369.72
2017-08-09T22:28:46.135Z,101367.94
2017-08-09T22:31:20.847Z,101369.34
2017-08-09T22:33:55.579Z,101375.10
2017-08-09T22:36:29.968Z,101378.61
2017-08-09T22:39:04.275Z,101382.76
2017-08-09T22:41:39.256Z,101376.27
2017-08-09T22:44:13.871Z,101370.16
2017-08-09T22:46:48.705Z,101371.59
2017-08-09T22:49:23.236Z,101369.59
2017-08-09T22:51:57.744Z,101378.62
2017-08-09T22:54:32.501Z,101379.91
2017-08-09T22:57:07.118Z,101373.55
2017-08-09T22:59:41.876Z,101386.23
2017-08-09T23:02:17.391Z,101398.03
2017-08-09T23:04:52.064Z,101412.33
2017-08-09T23:07:26.732Z,101420.03
2017-08-09T23:10:01.279Z,101417.50
2017-08-09T23:12:36.029Z,101414.65
2017-08-09T23:15:10.779Z,101416.27
2017-08-09T23:17:45.436Z,101415.17
2017-08-09T23:20:21.199Z,101406.83
2017-08-09T23:22:55.912Z,101404.38
2017-08-09T23:25:30.423Z,101408.94
2017-08-09T23:28:05.114Z,101412.09
2017-08-09T23:30:39.792Z,101416.19
2017-08-09T23:33:14.595Z,101423.06
2017-08-09T23:35:49.304Z,101419.61
2017-08-09T23:38:24.107Z,101403.34
2017-08-09T23:40:58.726Z,101417.30
2017-08-09T23:43:33.345Z,101423.03
2017-08-09T23:46:07.968Z,101430.74
2017-08-09T23:48:42.718Z,101424.09
2017-08-09T23:51:17.482Z,101430.45
2017-08-09T23:53:53.302Z,101436.77
2017-08-09T23:56:27.959Z,101445.61
2017-08-09T23:59:02.792Z,101453.69
